sensor_id;sensor_type;location;lat;lon;timestamp;P1;durP1;ratioP1;P2;durP2;ratioP2
48042;SDS011;33988;47.992;8.820;2024-01-15T00:00:46;8.35;;;4.38;;
48042;SDS011;33988;47.992;8.820;2024-01-15T00:03:16;9.77;;;4.55;;
48042;SDS011;33988;47.992;8.820;2024-01-15T00:05:43;9.45;;;5.15;;
48042;SDS011;33988;47.992;8.820;2024-01-15T00:08:12;10.63;;;5.43;;
48042;SDS011;33988;47.992;8.820;2024-01-15T00:10:39;11.98;;;6.13;;
48042;SDS011;33988;47.992;8.820;2024-01-15T00:13:07;12.90;;;6.18;;
48042;SDS011;33988;47.992;8.820;2024-01-15T00:15:37;10.10;;;5.55;;
48042;SDS011;33988;47.992;8.820;2024-01-15T00:18:04;16.70;;;7.25;;
48042;SDS011;33988;47.992;8.820;2024-01-15T00:20:31;15.77;;;7.20;;
48042;SDS011;33988;47.992;8.820;2024-01-15T00:23:03;13.60;;;6.55;;
48042;SDS011;33988;47.992;8.820;2024-01-15T00:25:35;18.17;;;8.75;;
48042;SDS011;33988;47.992;8.820;2024-01-15T00:28:05;15.60;;;6.53;;
48042;SDS011;33988;47.992;8.820;2024-01-15T00:30:32;17.30;;;7.50;;
48042;SDS011;33988;47.992;8.820;2024-01-15T00:32:59;13.93;;;6.97;;
48042;SDS011;33988;47.992;8.820;2024-01-15T00:35:26;16.25;;;7.25;;
48042;SDS011;33988;47.992;8.820;2024-01-15T00:37:55;14.57;;;6.50;;
48042;SDS011;33988;47.992;8.820;2024-01-15T00:40:25;16.15;;;6.93;;
48042;SDS011;33988;47.992;8.820;2024-01-15T00:42:52;16.45;;;7.78;;
48042;SDS011;33988;47.992;8.820;2024-01-15T00:45:19;14.27;;;7.20;;
48042;SDS011;33988;47.992;8.820;2024-01-15T00:47:46;12.25;;;6.90;;
48042;SDS011;33988;47.992;8.820;2024-01-15T00:50:13;14.10;;;6.47;;
48042;SDS011;33988;47.992;8.820;2024-01-15T00:52:43;14.75;;;6.45;;
48042;SDS011;33988;47.992;8.820;2024-01-15T00:55:10;17.30;;;7.95;;
48042;SDS011;33988;47.992;8.820;2024-01-15T00:57:37;15.00;;;7.85;;
48042;SDS011;33988;47.992;8.820;2024-01-15T01:00:06;14.88;;;6.90;;
48042;SDS011;33988;47.992;8.820;2024-01-15T01:02:35;18.75;;;7.65;;
48042;SDS011;33988;47.992;8.820;2024-01-15T01:05:02;13.27;;;6.65;;
48042;SDS011;33988;47.992;8.820;2024-01-15T01:07:30;15.00;;;6.72;;
48042;SDS011;33988;47.992;8.820;2024-01-15T01:09:57;15.35;;;6.97;;
48042;SDS011;33988;47.992;8.820;2024-01-15T01:12:26;14.68;;;6.53;;
48042;SDS011;33988;47.992;8.820;2024-01-15T01:14:53;14.10;;;6.60;;
48042;SDS011;33988;47.992;8.820;2024-01-15T01:17:20;13.00;;;6.63;;
48042;SDS011;33988;47.992;8.820;2024-01-15T01:19:51;13.07;;;6.43;;
48042;SDS011;33988;47.992;8.820;2024-01-15T01:22:20;16.85;;;7.57;;
48042;SDS011;33988;47.992;8.820;2024-01-15T01:24:50;14.45;;;6.80;;
48042;SDS011;33988;47.992;8.820;2024-01-15T01:27:22;15.00;;;6.90;;
48042;SDS011;33988;47.992;8.820;2024-01-15T01:29:49;15.15;;;6.65;;
48042;SDS011;33988;47.992;8.820;2024-01-15T01:32:16;13.38;;;6.78;;
48042;SDS011;33988;47.992;8.820;2024-01-15T01:34:45;13.43;;;6.15;;
48042;SDS011;33988;47.992;8.820;2024-01-15T01:37:15;11.98;;;5.63;;
48042;SDS011;33988;47.992;8.820;2024-01-15T01:39:45;14.02;;;6.88;;
48042;SDS011;33988;47.992;8.820;2024-01-15T01:42:12;10.60;;;5.35;;
48042;SDS011;33988;47.992;8.820;2024-01-15T01:44:39;13.55;;;5.90;;
48042;SDS011;33988;47.992;8.820;2024-01-15T01:47:09;11.50;;;5.60;;
48042;SDS011;33988;47.992;8.820;2024-01-15T01:49:38;10.65;;;5.30;;
48042;SDS011;33988;47.992;8.820;2024-01-15T01:52:05;11.35;;;5.47;;
48042;SDS011;33988;47.992;8.820;2024-01-15T01:54:34;12.50;;;5.55;;
48042;SDS011;33988;47.992;8.820;2024-01-15T01:57:05;10.07;;;5.13;;
48042;SDS011;33988;47.992;8.820;2024-01-15T01:59:34;10.50;;;5.07;;
48042;SDS011;33988;47.992;8.820;2024-01-15T02:02:02;11.35;;;4.95;;
48042;SDS011;33988;47.992;8.820;2024-01-15T02:04:32;9.55;;;4.68;;
48042;SDS011;33988;47.992;8.820;2024-01-15T02:07:00;9.70;;;4.55;;
48042;SDS011;33988;47.992;8.820;2024-01-15T02:09:27;10.05;;;4.88;;
48042;SDS011;33988;47.992;8.820;2024-01-15T02:11:54;10.00;;;4.85;;
48042;SDS011;33988;47.992;8.820;2024-01-15T02:14:21;9.85;;;4.70;;
48042;SDS011;33988;47.992;8.820;2024-01-15T02:16:50;9.02;;;4.05;;
48042;SDS011;33988;47.992;8.820;2024-01-15T02:19:18;9.02;;;4.68;;
48042;SDS011;33988;47.992;8.820;2024-01-15T02:21:45;9.32;;;4.85;;
48042;SDS011;33988;47.992;8.820;2024-01-15T02:24:15;10.18;;;4.38;;
48042;SDS011;33988;47.992;8.820;2024-01-15T02:26:44;8.70;;;4.53;;
48042;SDS011;33988;47.992;8.820;2024-01-15T02:29:11;10.43;;;4.78;;
48042;SDS011;33988;47.992;8.820;2024-01-15T02:31:41;9.32;;;3.85;;
48042;SDS011;33988;47.992;8.820;2024-01-15T02:34:08;11.57;;;5.40;;
48042;SDS011;33988;47.992;8.820;2024-01-15T02:36:38;9.23;;;4.45;;
48042;SDS011;33988;47.992;8.820;2024-01-15T02:39:05;8.30;;;4.35;;
48042;SDS011;33988;47.992;8.820;2024-01-15T02:41:32;9.65;;;4.43;;
48042;SDS011;33988;47.992;8.820;2024-01-15T02:44:02;7.65;;;4.25;;
48042;SDS011;33988;47.992;8.820;2024-01-15T02:46:29;8.23;;;4.20;;
48042;SDS011;33988;47.992;8.820;2024-01-15T02:48:56;7.80;;;4.13;;
48042;SDS011;33988;47.992;8.820;2024-01-15T02:51:23;7.72;;;4.13;;
48042;SDS011;33988;47.992;8.820;2024-01-15T02:53:50;9.63;;;4.40;;
48042;SDS011;33988;47.992;8.820;2024-01-15T02:56:18;7.13;;;3.80;;
48042;SDS011;33988;47.992;8.820;2024-01-15T02:58:45;8.90;;;4.03;;
48042;SDS011;33988;47.992;8.820;2024-01-15T03:01:14;8.63;;;4.43;;
48042;SDS011;33988;47.992;8.820;2024-01-15T03:03:41;10.63;;;4.70;;
48042;SDS011;33988;47.992;8.820;2024-01-15T03:06:08;8.98;;;4.10;;
48042;SDS011;33988;47.992;8.820;2024-01-15T03:08:39;9.73;;;4.65;;
48042;SDS011;33988;47.992;8.820;2024-01-15T03:11:06;7.97;;;3.90;;
48042;SDS011;33988;47.992;8.820;2024-01-15T03:13:35;8.35;;;3.95;;
48042;SDS011;33988;47.992;8.820;2024-01-15T03:16:04;7.57;;;3.90;;
48042;SDS011;33988;47.992;8.820;2024-01-15T03:18:33;8.32;;;3.92;;
48042;SDS011;33988;47.992;8.820;2024-01-15T03:21:03;8.88;;;4.25;;
48042;SDS011;33988;47.992;8.820;2024-01-15T03:23:32;8.18;;;4.22;;
48042;SDS011;33988;47.992;8.820;2024-01-15T03:25:59;7.72;;;3.80;;
48042;SDS011;33988;47.992;8.820;2024-01-15T03:28:26;10.35;;;4.30;;
48042;SDS011;33988;47.992;8.820;2024-01-15T03:30:53;8.95;;;4.03;;
48042;SDS011;33988;47.992;8.820;2024-01-15T03:33:20;8.80;;;4.20;;
48042;SDS011;33988;47.992;8.820;2024-01-15T03:35:47;10.88;;;4.82;;
48042;SDS011;33988;47.992;8.820;2024-01-15T03:38:17;9.23;;;4.68;;
48042;SDS011;33988;47.992;8.820;2024-01-15T03:40:44;10.80;;;5.13;;
48042;SDS011;33988;47.992;8.820;2024-01-15T03:43:11;9.52;;;4.45;;
48042;SDS011;33988;47.992;8.820;2024-01-15T03:45:42;7.68;;;4.38;;
48042;SDS011;33988;47.992;8.820;2024-01-15T03:48:12;10.50;;;4.43;;
48042;SDS011;33988;47.992;8.820;2024-01-15T03:50:41;8.60;;;4.45;;
48042;SDS011;33988;47.992;8.820;2024-01-15T03:53:08;7.32;;;4.32;;
48042;SDS011;33988;47.992;8.820;2024-01-15T03:55:40;9.90;;;4.63;;
48042;SDS011;33988;47.992;8.820;2024-01-15T03:58:07;8.90;;;4.47;;
48042;SDS011;33988;47.992;8.820;2024-01-15T04:00:34;9.90;;;4.38;;
48042;SDS011;33988;47.992;8.820;2024-01-15T04:03:01;7.28;;;3.97;;
48042;SDS011;33988;47.992;8.820;2024-01-15T04:05:28;8.15;;;4.05;;
48042;SDS011;33988;47.992;8.820;2024-01-15T04:07:54;9.50;;;4.78;;
48042;SDS011;33988;47.992;8.820;2024-01-15T04:10:22;6.80;;;4.05;;
48042;SDS011;33988;47.992;8.820;2024-01-15T04:12:49;10.88;;;4.40;;
48042;SDS011;33988;47.992;8.820;2024-01-15T04:15:16;9.13;;;4.15;;
48042;SDS011;33988;47.992;8.820;2024-01-15T04:17:43;7.57;;;3.63;;
48042;SDS011;33988;47.992;8.820;2024-01-15T04:20:12;9.85;;;4.25;;
48042;SDS011;33988;47.992;8.820;2024-01-15T04:22:42;6.88;;;3.80;;
48042;SDS011;33988;47.992;8.820;2024-01-15T04:25:10;8.23;;;4.17;;
48042;SDS011;33988;47.992;8.820;2024-01-15T04:27:40;5.70;;;3.40;;
48042;SDS011;33988;47.992;8.820;2024-01-15T04:30:07;9.02;;;4.38;;
48042;SDS011;33988;47.992;8.820;2024-01-15T04:32:37;9.18;;;4.40;;
48042;SDS011;33988;47.992;8.820;2024-01-15T04:35:04;6.75;;;3.58;;
48042;SDS011;33988;47.992;8.820;2024-01-15T04:37:31;7.10;;;3.78;;
48042;SDS011;33988;47.992;8.820;2024-01-15T04:40:01;7.30;;;3.65;;
48042;SDS011;33988;47.992;8.820;2024-01-15T04:42:30;9.27;;;4.32;;
48042;SDS011;33988;47.992;8.820;2024-01-15T04:44:59;8.02;;;3.92;;
48042;SDS011;33988;47.992;8.820;2024-01-15T04:47:26;8.07;;;3.80;;
48042;SDS011;33988;47.992;8.820;2024-01-15T04:49:53;7.47;;;3.75;;
48042;SDS011;33988;47.992;8.820;2024-01-15T04:52:20;8.35;;;3.88;;
48042;SDS011;33988;47.992;8.820;2024-01-15T04:54:47;7.07;;;3.55;;
48042;SDS011;33988;47.992;8.820;2024-01-15T04:57:14;6.55;;;3.38;;
48042;SDS011;33988;47.992;8.820;2024-01-15T04:59:41;8.80;;;4.32;;
48042;SDS011;33988;47.992;8.820;2024-01-15T05:02:09;7.60;;;3.53;;
48042;SDS011;33988;47.992;8.820;2024-01-15T05:04:35;6.82;;;3.38;;
48042;SDS011;33988;47.992;8.820;2024-01-15T05:07:03;7.43;;;3.67;;
48042;SDS011;33988;47.992;8.820;2024-01-15T05:09:30;6.20;;;4.10;;
48042;SDS011;33988;47.992;8.820;2024-01-15T05:11:58;7.00;;;3.30;;
48042;SDS011;33988;47.992;8.820;2024-01-15T05:14:25;5.80;;;3.42;;
48042;SDS011;33988;47.992;8.820;2024-01-15T05:16:52;5.85;;;3.15;;
48042;SDS011;33988;47.992;8.820;2024-01-15T05:19:21;8.63;;;3.80;;
48042;SDS011;33988;47.992;8.820;2024-01-15T05:21:48;5.55;;;3.10;;
48042;SDS011;33988;47.992;8.820;2024-01-15T05:24:15;4.82;;;2.88;;
48042;SDS011;33988;47.992;8.820;2024-01-15T05:26:42;7.07;;;3.55;;
48042;SDS011;33988;47.992;8.820;2024-01-15T05:29:09;6.38;;;3.28;;
48042;SDS011;33988;47.992;8.820;2024-01-15T05:31:36;6.72;;;3.38;;
48042;SDS011;33988;47.992;8.820;2024-01-15T05:34:06;7.63;;;2.85;;
48042;SDS011;33988;47.992;8.820;2024-01-15T05:36:33;4.60;;;3.15;;
48042;SDS011;33988;47.992;8.820;2024-01-15T05:39:00;4.47;;;2.85;;
48042;SDS011;33988;47.992;8.820;2024-01-15T05:41:27;5.10;;;2.92;;
48042;SDS011;33988;47.992;8.820;2024-01-15T05:43:56;5.28;;;2.85;;
48042;SDS011;33988;47.992;8.820;2024-01-15T05:46:23;4.53;;;2.42;;
48042;SDS011;33988;47.992;8.820;2024-01-15T05:48:50;3.88;;;2.38;;
48042;SDS011;33988;47.992;8.820;2024-01-15T05:51:17;4.18;;;2.20;;
48042;SDS011;33988;47.992;8.820;2024-01-15T05:53:44;4.60;;;2.25;;
48042;SDS011;33988;47.992;8.820;2024-01-15T05:56:13;3.90;;;2.17;;
48042;SDS011;33988;47.992;8.820;2024-01-15T05:58:40;3.55;;;2.00;;
48042;SDS011;33988;47.992;8.820;2024-01-15T06:01:07;2.88;;;1.65;;
48042;SDS011;33988;47.992;8.820;2024-01-15T06:03:34;3.03;;;1.85;;
48042;SDS011;33988;47.992;8.820;2024-01-15T06:06:04;3.22;;;1.80;;
48042;SDS011;33988;47.992;8.820;2024-01-15T06:08:31;3.10;;;1.90;;
48042;SDS011;33988;47.992;8.820;2024-01-15T06:11:00;3.33;;;1.92;;
48042;SDS011;33988;47.992;8.820;2024-01-15T06:13:27;3.00;;;1.77;;
48042;SDS011;33988;47.992;8.820;2024-01-15T06:15:54;3.78;;;1.77;;
48042;SDS011;33988;47.992;8.820;2024-01-15T06:18:21;4.32;;;2.30;;
48042;SDS011;33988;47.992;8.820;2024-01-15T06:20:49;3.97;;;2.03;;
48042;SDS011;33988;47.992;8.820;2024-01-15T06:23:20;4.38;;;2.45;;
48042;SDS011;33988;47.992;8.820;2024-01-15T06:25:50;3.72;;;1.98;;
48042;SDS011;33988;47.992;8.820;2024-01-15T06:28:17;4.30;;;2.40;;
48042;SDS011;33988;47.992;8.820;2024-01-15T06:30:44;4.20;;;2.15;;
48042;SDS011;33988;47.992;8.820;2024-01-15T06:33:11;3.80;;;1.95;;
48042;SDS011;33988;47.992;8.820;2024-01-15T06:35:38;4.25;;;2.22;;
48042;SDS011;33988;47.992;8.820;2024-01-15T06:38:05;3.78;;;2.17;;
48042;SDS011;33988;47.992;8.820;2024-01-15T06:40:34;3.53;;;2.13;;
48042;SDS011;33988;47.992;8.820;2024-01-15T06:43:06;4.10;;;2.38;;
48042;SDS011;33988;47.992;8.820;2024-01-15T06:45:32;4.00;;;2.10;;
48042;SDS011;33988;47.992;8.820;2024-01-15T06:47:59;4.18;;;1.95;;
48042;SDS011;33988;47.992;8.820;2024-01-15T06:50:26;5.93;;;1.80;;
48042;SDS011;33988;47.992;8.820;2024-01-15T06:52:56;3.80;;;2.03;;
48042;SDS011;33988;47.992;8.820;2024-01-15T06:55:25;5.53;;;2.17;;
48042;SDS011;33988;47.992;8.820;2024-01-15T06:57:54;5.32;;;2.20;;
48042;SDS011;33988;47.992;8.820;2024-01-15T07:00:24;4.05;;;2.33;;
48042;SDS011;33988;47.992;8.820;2024-01-15T07:02:54;3.08;;;2.00;;
48042;SDS011;33988;47.992;8.820;2024-01-15T07:05:23;4.82;;;2.30;;
48042;SDS011;33988;47.992;8.820;2024-01-15T07:07:50;3.22;;;1.85;;
48042;SDS011;33988;47.992;8.820;2024-01-15T07:10:20;3.42;;;2.20;;
48042;SDS011;33988;47.992;8.820;2024-01-15T07:12:50;3.60;;;1.90;;
48042;SDS011;33988;47.992;8.820;2024-01-15T07:15:18;5.68;;;2.50;;
48042;SDS011;33988;47.992;8.820;2024-01-15T07:17:45;2.95;;;2.15;;
48042;SDS011;33988;47.992;8.820;2024-01-15T07:20:12;3.53;;;2.03;;
48042;SDS011;33988;47.992;8.820;2024-01-15T07:22:39;3.08;;;2.00;;
48042;SDS011;33988;47.992;8.820;2024-01-15T07:25:06;3.25;;;1.98;;
48042;SDS011;33988;47.992;8.820;2024-01-15T07:27:33;3.45;;;1.90;;
48042;SDS011;33988;47.992;8.820;2024-01-15T07:30:00;3.40;;;1.83;;
48042;SDS011;33988;47.992;8.820;2024-01-15T07:32:28;3.85;;;1.90;;
48042;SDS011;33988;47.992;8.820;2024-01-15T07:34:56;2.40;;;1.60;;
48042;SDS011;33988;47.992;8.820;2024-01-15T07:37:23;2.80;;;1.80;;
48042;SDS011;33988;47.992;8.820;2024-01-15T07:39:52;4.25;;;2.00;;
48042;SDS011;33988;47.992;8.820;2024-01-15T07:42:21;3.67;;;2.05;;
48042;SDS011;33988;47.992;8.820;2024-01-15T07:44:50;2.67;;;1.83;;
48042;SDS011;33988;47.992;8.820;2024-01-15T07:47:17;3.65;;;2.05;;
48042;SDS011;33988;47.992;8.820;2024-01-15T07:49:47;2.67;;;1.80;;
48042;SDS011;33988;47.992;8.820;2024-01-15T07:52:14;3.95;;;2.13;;
48042;SDS011;33988;47.992;8.820;2024-01-15T07:54:44;2.92;;;1.80;;
48042;SDS011;33988;47.992;8.820;2024-01-15T07:57:14;3.90;;;2.13;;
48042;SDS011;33988;47.992;8.820;2024-01-15T07:59:41;4.13;;;2.25;;
48042;SDS011;33988;47.992;8.820;2024-01-15T08:02:10;4.35;;;2.40;;
48042;SDS011;33988;47.992;8.820;2024-01-15T08:04:37;3.47;;;2.50;;
48042;SDS011;33988;47.992;8.820;2024-01-15T08:07:05;3.45;;;2.22;;
48042;SDS011;33988;47.992;8.820;2024-01-15T08:09:34;3.50;;;1.98;;
48042;SDS011;33988;47.992;8.820;2024-01-15T08:12:03;3.92;;;2.05;;
48042;SDS011;33988;47.992;8.820;2024-01-15T08:14:32;3.83;;;2.13;;
48042;SDS011;33988;47.992;8.820;2024-01-15T08:16:59;6.97;;;2.42;;
48042;SDS011;33988;47.992;8.820;2024-01-15T08:19:27;3.80;;;2.13;;
48042;SDS011;33988;47.992;8.820;2024-01-15T08:21:54;4.57;;;2.58;;
48042;SDS011;33988;47.992;8.820;2024-01-15T08:24:21;3.88;;;1.98;;
48042;SDS011;33988;47.992;8.820;2024-01-15T08:26:48;3.67;;;2.40;;
48042;SDS011;33988;47.992;8.820;2024-01-15T08:29:15;5.57;;;2.58;;
48042;SDS011;33988;47.992;8.820;2024-01-15T08:31:44;6.40;;;3.22;;
48042;SDS011;33988;47.992;8.820;2024-01-15T08:34:12;4.00;;;2.63;;
48042;SDS011;33988;47.992;8.820;2024-01-15T08:36:41;5.88;;;2.78;;
48042;SDS011;33988;47.992;8.820;2024-01-15T08:39:08;5.50;;;3.00;;
48042;SDS011;33988;47.992;8.820;2024-01-15T08:41:38;4.30;;;2.30;;
48042;SDS011;33988;47.992;8.820;2024-01-15T08:44:05;4.70;;;2.70;;
48042;SDS011;33988;47.992;8.820;2024-01-15T08:46:35;4.43;;;2.58;;
48042;SDS011;33988;47.992;8.820;2024-01-15T08:49:01;3.45;;;2.22;;
48042;SDS011;33988;47.992;8.820;2024-01-15T08:51:32;3.42;;;2.17;;
48042;SDS011;33988;47.992;8.820;2024-01-15T08:53:59;4.60;;;2.35;;
48042;SDS011;33988;47.992;8.820;2024-01-15T08:56:26;3.80;;;2.13;;
48042;SDS011;33988;47.992;8.820;2024-01-15T08:58:55;5.43;;;2.40;;
48042;SDS011;33988;47.992;8.820;2024-01-15T09:01:23;4.88;;;2.35;;
48042;SDS011;33988;47.992;8.820;2024-01-15T09:03:50;3.70;;;1.85;;
48042;SDS011;33988;47.992;8.820;2024-01-15T09:06:17;2.05;;;1.48;;
48042;SDS011;33988;47.992;8.820;2024-01-15T09:08:44;4.30;;;2.38;;
48042;SDS011;33988;47.992;8.820;2024-01-15T09:11:13;2.78;;;2.28;;
48042;SDS011;33988;47.992;8.820;2024-01-15T09:13:40;3.90;;;2.15;;
48042;SDS011;33988;47.992;8.820;2024-01-15T09:16:10;4.05;;;2.45;;
48042;SDS011;33988;47.992;8.820;2024-01-15T09:18:39;4.50;;;2.22;;
48042;SDS011;33988;47.992;8.820;2024-01-15T09:21:09;5.15;;;2.58;;
48042;SDS011;33988;47.992;8.820;2024-01-15T09:23:38;3.63;;;2.08;;
48042;SDS011;33988;47.992;8.820;2024-01-15T09:26:08;4.32;;;2.47;;
48042;SDS011;33988;47.992;8.820;2024-01-15T09:28:35;3.03;;;1.90;;
48042;SDS011;33988;47.992;8.820;2024-01-15T09:31:02;5.50;;;2.65;;
48042;SDS011;33988;47.992;8.820;2024-01-15T09:33:32;3.60;;;2.20;;
48042;SDS011;33988;47.992;8.820;2024-01-15T09:36:02;2.95;;;1.73;;
48042;SDS011;33988;47.992;8.820;2024-01-15T09:38:32;2.53;;;1.58;;
48042;SDS011;33988;47.992;8.820;2024-01-15T09:40:59;1.95;;;1.60;;
48042;SDS011;33988;47.992;8.820;2024-01-15T09:43:26;2.25;;;1.60;;
48042;SDS011;33988;47.992;8.820;2024-01-15T09:45:53;1.80;;;1.50;;
48042;SDS011;33988;47.992;8.820;2024-01-15T09:48:20;1.80;;;1.40;;
48042;SDS011;33988;47.992;8.820;2024-01-15T09:50:50;1.92;;;1.35;;
48042;SDS011;33988;47.992;8.820;2024-01-15T09:53:18;2.60;;;1.52;;
48042;SDS011;33988;47.992;8.820;2024-01-15T09:55:46;1.70;;;1.30;;
48042;SDS011;33988;47.992;8.820;2024-01-15T09:58:16;3.78;;;1.40;;
48042;SDS011;33988;47.992;8.820;2024-01-15T10:00:48;1.70;;;1.27;;
48042;SDS011;33988;47.992;8.820;2024-01-15T10:03:16;2.53;;;1.30;;
48042;SDS011;33988;47.992;8.820;2024-01-15T10:05:47;2.00;;;1.40;;
48042;SDS011;33988;47.992;8.820;2024-01-15T10:08:18;1.73;;;1.13;;
48042;SDS011;33988;47.992;8.820;2024-01-15T10:10:45;2.35;;;1.25;;
48042;SDS011;33988;47.992;8.820;2024-01-15T10:13:14;2.10;;;1.20;;
48042;SDS011;33988;47.992;8.820;2024-01-15T10:15:44;1.60;;;1.10;;
48042;SDS011;33988;47.992;8.820;2024-01-15T10:18:13;2.15;;;1.30;;
48042;SDS011;33988;47.992;8.820;2024-01-15T10:20:43;3.85;;;1.42;;
48042;SDS011;33988;47.992;8.820;2024-01-15T10:23:09;4.38;;;1.33;;
48042;SDS011;33988;47.992;8.820;2024-01-15T10:25:36;1.85;;;1.30;;
48042;SDS011;33988;47.992;8.820;2024-01-15T10:28:04;1.60;;;1.30;;
48042;SDS011;33988;47.992;8.820;2024-01-15T10:30:34;1.95;;;1.20;;
48042;SDS011;33988;47.992;8.820;2024-01-15T10:33:02;2.55;;;1.50;;
48042;SDS011;33988;47.992;8.820;2024-01-15T10:35:37;2.00;;;1.30;;
48042;SDS011;33988;47.992;8.820;2024-01-15T10:38:05;2.30;;;1.35;;
48042;SDS011;33988;47.992;8.820;2024-01-15T10:40:32;1.98;;;1.20;;
48042;SDS011;33988;47.992;8.820;2024-01-15T10:42:59;3.45;;;1.30;;
48042;SDS011;33988;47.992;8.820;2024-01-15T10:45:31;2.67;;;1.02;;
48042;SDS011;33988;47.992;8.820;2024-01-15T10:48:01;1.88;;;1.20;;
48042;SDS011;33988;47.992;8.820;2024-01-15T10:50:30;1.95;;;1.20;;
48042;SDS011;33988;47.992;8.820;2024-01-15T10:52:58;2.15;;;1.17;;
48042;SDS011;33988;47.992;8.820;2024-01-15T10:55:26;1.83;;;1.20;;
48042;SDS011;33988;47.992;8.820;2024-01-15T10:57:56;2.50;;;1.27;;
48042;SDS011;33988;47.992;8.820;2024-01-15T11:00:24;1.00;;;0.90;;
48042;SDS011;33988;47.992;8.820;2024-01-15T11:02:54;1.35;;;1.00;;
48042;SDS011;33988;47.992;8.820;2024-01-15T11:05:22;0.88;;;0.88;;
48042;SDS011;33988;47.992;8.820;2024-01-15T11:07:56;4.13;;;1.02;;
48042;SDS011;33988;47.992;8.820;2024-01-15T11:16:02;1.80;;;1.20;;
48042;SDS011;33988;47.992;8.820;2024-01-15T11:18:35;1.48;;;1.00;;
48042;SDS011;33988;47.992;8.820;2024-01-15T11:23:47;1.50;;;1.10;;
48042;SDS011;33988;47.992;8.820;2024-01-15T11:26:38;3.33;;;1.15;;
48042;SDS011;33988;47.992;8.820;2024-01-15T11:31:57;1.65;;;1.17;;
48042;SDS011;33988;47.992;8.820;2024-01-15T11:37:56;1.33;;;0.80;;
48042;SDS011;33988;47.992;8.820;2024-01-15T11:40:18;1.40;;;1.00;;
48042;SDS011;33988;47.992;8.820;2024-01-15T11:42:46;1.92;;;1.17;;
48042;SDS011;33988;47.992;8.820;2024-01-15T11:45:15;1.83;;;1.25;;
48042;SDS011;33988;47.992;8.820;2024-01-15T11:50:48;1.17;;;0.93;;
48042;SDS011;33988;47.992;8.820;2024-01-15T11:53:36;4.43;;;0.93;;
48042;SDS011;33988;47.992;8.820;2024-01-15T11:56:18;1.38;;;0.98;;
48042;SDS011;33988;47.992;8.820;2024-01-15T11:58:48;1.85;;;1.27;;
48042;SDS011;33988;47.992;8.820;2024-01-15T12:01:17;3.33;;;1.30;;
48042;SDS011;33988;47.992;8.820;2024-01-15T12:03:47;2.10;;;1.05;;
48042;SDS011;33988;47.992;8.820;2024-01-15T12:06:14;2.08;;;1.52;;
48042;SDS011;33988;47.992;8.820;2024-01-15T12:08:41;1.95;;;1.10;;
48042;SDS011;33988;47.992;8.820;2024-01-15T12:11:10;2.75;;;1.50;;
48042;SDS011;33988;47.992;8.820;2024-01-15T12:13:40;1.38;;;0.95;;
48042;SDS011;33988;47.992;8.820;2024-01-15T12:16:07;2.15;;;1.30;;
48042;SDS011;33988;47.992;8.820;2024-01-15T12:18:34;1.80;;;1.20;;
48042;SDS011;33988;47.992;8.820;2024-01-15T12:21:03;1.25;;;1.10;;
48042;SDS011;33988;47.992;8.820;2024-01-15T12:23:33;2.72;;;1.00;;
48042;SDS011;33988;47.992;8.820;2024-01-15T12:26:00;1.42;;;1.05;;
48042;SDS011;33988;47.992;8.820;2024-01-15T12:28:27;1.50;;;1.08;;
48042;SDS011;33988;47.992;8.820;2024-01-15T12:30:55;1.55;;;1.23;;
48042;SDS011;33988;47.992;8.820;2024-01-15T12:33:22;2.65;;;1.30;;
48042;SDS011;33988;47.992;8.820;2024-01-15T12:35:52;4.30;;;1.30;;
48042;SDS011;33988;47.992;8.820;2024-01-15T12:38:19;1.90;;;1.27;;
48042;SDS011;33988;47.992;8.820;2024-01-15T12:40:47;2.22;;;1.30;;
48042;SDS011;33988;47.992;8.820;2024-01-15T12:43:17;2.15;;;1.30;;
48042;SDS011;33988;47.992;8.820;2024-01-15T12:45:46;2.42;;;1.35;;
48042;SDS011;33988;47.992;8.820;2024-01-15T12:48:14;2.28;;;1.30;;
48042;SDS011;33988;47.992;8.820;2024-01-15T12:50:44;1.98;;;1.38;;
48042;SDS011;33988;47.992;8.820;2024-01-15T12:53:11;2.33;;;1.52;;
48042;SDS011;33988;47.992;8.820;2024-01-15T12:55:41;2.47;;;1.45;;
48042;SDS011;33988;47.992;8.820;2024-01-15T12:58:08;1.60;;;1.30;;
48042;SDS011;33988;47.992;8.820;2024-01-15T13:00:40;2.03;;;1.60;;
48042;SDS011;33988;47.992;8.820;2024-01-15T13:03:10;2.38;;;1.50;;
48042;SDS011;33988;47.992;8.820;2024-01-15T13:05:37;2.65;;;1.60;;
48042;SDS011;33988;47.992;8.820;2024-01-15T13:08:06;2.10;;;1.38;;
48042;SDS011;33988;47.992;8.820;2024-01-15T13:10:33;2.67;;;1.40;;
48042;SDS011;33988;47.992;8.820;2024-01-15T13:13:02;3.28;;;1.60;;
48042;SDS011;33988;47.992;8.820;2024-01-15T13:15:32;2.22;;;1.40;;
48042;SDS011;33988;47.992;8.820;2024-01-15T13:17:59;2.67;;;1.65;;
48042;SDS011;33988;47.992;8.820;2024-01-15T13:20:31;1.77;;;1.50;;
48042;SDS011;33988;47.992;8.820;2024-01-15T13:23:02;3.35;;;1.83;;
48042;SDS011;33988;47.992;8.820;2024-01-15T13:25:30;2.42;;;1.40;;
48042;SDS011;33988;47.992;8.820;2024-01-15T13:27:57;2.28;;;1.70;;
48042;SDS011;33988;47.992;8.820;2024-01-15T13:30:26;2.75;;;1.50;;
48042;SDS011;33988;47.992;8.820;2024-01-15T13:32:53;3.38;;;2.08;;
48042;SDS011;33988;47.992;8.820;2024-01-15T13:35:22;4.03;;;1.73;;
48042;SDS011;33988;47.992;8.820;2024-01-15T13:37:54;3.60;;;1.85;;
48042;SDS011;33988;47.992;8.820;2024-01-15T13:40:21;2.58;;;1.67;;
48042;SDS011;33988;47.992;8.820;2024-01-15T13:42:51;2.70;;;1.67;;
48042;SDS011;33988;47.992;8.820;2024-01-15T13:45:19;2.58;;;1.70;;
48042;SDS011;33988;47.992;8.820;2024-01-15T13:47:46;2.28;;;1.55;;
48042;SDS011;33988;47.992;8.820;2024-01-15T13:50:13;2.45;;;1.58;;
48042;SDS011;33988;47.992;8.820;2024-01-15T13:52:42;2.05;;;1.45;;
48042;SDS011;33988;47.992;8.820;2024-01-15T13:55:15;2.97;;;1.80;;
48042;SDS011;33988;47.992;8.820;2024-01-15T13:57:43;3.15;;;1.70;;
48042;SDS011;33988;47.992;8.820;2024-01-15T14:00:12;1.88;;;1.50;;
48042;SDS011;33988;47.992;8.820;2024-01-15T14:02:44;3.50;;;1.65;;
48042;SDS011;33988;47.992;8.820;2024-01-15T14:05:14;3.38;;;1.92;;
48042;SDS011;33988;47.992;8.820;2024-01-15T14:07:42;2.85;;;1.77;;
48042;SDS011;33988;47.992;8.820;2024-01-15T14:10:09;3.20;;;2.03;;
48042;SDS011;33988;47.992;8.820;2024-01-15T14:12:39;3.67;;;1.80;;
48042;SDS011;33988;47.992;8.820;2024-01-15T14:15:08;3.45;;;2.00;;
48042;SDS011;33988;47.992;8.820;2024-01-15T14:17:35;5.20;;;2.08;;
48042;SDS011;33988;47.992;8.820;2024-01-15T14:20:06;3.78;;;1.83;;
48042;SDS011;33988;47.992;8.820;2024-01-15T14:22:35;2.58;;;1.52;;
48042;SDS011;33988;47.992;8.820;2024-01-15T14:25:05;3.75;;;1.90;;
48042;SDS011;33988;47.992;8.820;2024-01-15T14:27:35;3.50;;;1.92;;
48042;SDS011;33988;47.992;8.820;2024-01-15T14:30:03;4.20;;;2.10;;
48042;SDS011;33988;47.992;8.820;2024-01-15T14:32:34;3.08;;;1.90;;
48042;SDS011;33988;47.992;8.820;2024-01-15T14:35:01;2.65;;;1.80;;
48042;SDS011;33988;47.992;8.820;2024-01-15T14:37:30;3.88;;;2.30;;
48042;SDS011;33988;47.992;8.820;2024-01-15T14:39:57;3.80;;;1.98;;
48042;SDS011;33988;47.992;8.820;2024-01-15T14:42:24;3.42;;;1.95;;
48042;SDS011;33988;47.992;8.820;2024-01-15T14:44:52;2.63;;;1.65;;
48042;SDS011;33988;47.992;8.820;2024-01-15T14:47:19;2.80;;;1.88;;
48042;SDS011;33988;47.992;8.820;2024-01-15T14:49:50;3.72;;;1.90;;
48042;SDS011;33988;47.992;8.820;2024-01-15T14:52:19;2.40;;;1.67;;
48042;SDS011;33988;47.992;8.820;2024-01-15T14:54:46;2.30;;;1.63;;
48042;SDS011;33988;47.992;8.820;2024-01-15T14:57:14;3.10;;;1.73;;
48042;SDS011;33988;47.992;8.820;2024-01-15T14:59:41;2.53;;;1.65;;
48042;SDS011;33988;47.992;8.820;2024-01-15T15:02:08;2.30;;;1.45;;
48042;SDS011;33988;47.992;8.820;2024-01-15T15:04:40;1.92;;;1.50;;
48042;SDS011;33988;47.992;8.820;2024-01-15T15:07:10;4.93;;;1.80;;
48042;SDS011;33988;47.992;8.820;2024-01-15T15:09:42;2.25;;;1.27;;